Impacts METAR Board
IDs:

KAQO - Llano Muni, TX, US

Updated at: 1800 UTC 16 Oct 2021
Potential Impact None Slight Moderate High
Time 16/06Z 16/07Z 16/08Z 16/09Z 16/10Z 16/11Z 16/12Z 16/13Z 16/14Z 16/15Z 16/16Z 16/17Z 16/18Z
Temp57 55 52 50 46 48 48 45 52 61 64 66 70
Dewpt46 46 46 45 43 43 43 43 45 43 36 36 34
Altim30.28 30.29 30.31 30.30 30.31 30.33 30.35 30.36 30.38 30.40 30.41 30.41 30.38
VIS10 10 10 10 10 10 10 10 10 10 10 10 10
CIG-- -- -- -- -- -- -- -- -- -- -- -- --
CoverSCTCLRCLRCLRFEWFEWCLRCLRCLRCLRCLRCLRCLR
FltCatVFRVFRVFRVFRVFRVFRVFRVFRVFRVFRVFRVFRVFR
WX--------------------------
WDir3503400300026000320304036020
WSpd4 3 0 3 0 3 0 0 3 5 12 11 9
WGst-- -- -- -- -- -- -- -- -- -- -- -- 15
Raw hourly METARs
KAQO 160555Z AUTO 35004KT 10SM SCT070 14/08 A3028 RMK AO2
KAQO 160655Z AUTO 34003KT 10SM CLR 13/08 A3029 RMK AO2
KAQO 160755Z AUTO 00000KT 10SM CLR 11/08 A3031 RMK AO2
KAQO 160855Z AUTO 30003KT 10SM CLR 10/07 A3030 RMK AO2
KAQO 160955Z AUTO 00000KT 10SM FEW039 FEW046 FEW070 08/06 A3031 RMK AO2
KAQO 161055Z AUTO 26003KT 10SM FEW040 09/06 A3033 RMK AO2
KAQO 161155Z AUTO 00000KT 10SM CLR 09/06 A3035 RMK AO2
KAQO 161255Z AUTO 00000KT 10SM CLR 07/06 A3036 RMK AO2
KAQO 161355Z AUTO 32003KT 10SM CLR 11/07 A3038 RMK AO2
KAQO 161455Z AUTO 03005KT 10SM CLR 16/06 A3040 RMK AO2
KAQO 161555Z AUTO 04012KT 10SM CLR 18/02 A3041 RMK AO2
KAQO 161655Z AUTO 36011KT 10SM CLR 19/02 A3041 RMK AO2
KAQO 161755Z AUTO 02009G15KT 350V050 10SM CLR 21/01 A3038 RMK AO2